ADDS METAR Data INFO
IDs: Format: Raw Decoded Include TAF

Data at: 1501 UTC 11 Dec 2017

KGDV 111456Z AUTO 31015G22KT 10SM OVC023 02/M04 A3030 RMK AO2 SLP278 T00171039 51020 FZRANO
KGDV 111356Z AUTO 32014KT 10SM BKN023 01/M04 A3028 RMK AO2 SLP278 T00111039 FZRANO
KGDV 111256Z AUTO 33017KT 10SM CLR 01/M04 A3025 RMK AO2 PK WND 32027/1209 SLP266 T00111039 FZRANO
KGDV 111228Z AUTO 32020G26KT 10SM FEW025 02/M03 A3025 RMK AO2 PK WND 32027/1209 FZRANO
KGDV 111156Z AUTO 33022G28KT 10SM OVC027 03/M03 A3023 RMK AO2 PK WND 33032/1058 SLP257 T00281033 10056 20028 53023
KGDV 111119Z AUTO 32020G29KT 10SM BKN029 03/M03 A3022 RMK AO2 PK WND 33032/1058
KGDV 111056Z AUTO 33022G34KT 10SM FEW029 03/M03 A3021 RMK AO2 PK WND 33034/1051 SLP242 T00331033
KGDV 110956Z AUTO 32028G35KT 10SM CLR 04/M04 A3018 RMK AO2 PK WND 32035/0955 SLP231 T00391039
KGDV 110856Z AUTO 31021G31KT 10SM CLR 04/M04 A3016 RMK AO2 PK WND 31033/0804 SLP225 T00391044 51012
KGDV 110756Z AUTO 31023G31KT 10SM CLR 04/M04 A3015 RMK AO2 PK WND 30033/0739 SLP219 T00441044
KGDV 110656Z AUTO 30019G28KT 10SM CLR 04/M05 A3014 RMK AO2 PK WND 30029/0637 SLP217 T00441050 401280017
KGDV 110556Z AUTO 30020G30KT 10SM CLR 06/M06 A3012 RMK AO2 PK WND 31032/0528 SLP212 T00561061 10078 20028 51021
KGDV 110456Z AUTO 31024G29KT 10SM CLR 06/M07 A3010 RMK AO2 PK WND 32038/0425 SLP205 T00611072
KGDV 110356Z AUTO 31024G31KT 10SM CLR 07/M09 A3009 RMK AO2 PK WND 31035/0332 SLP202 T00721089
KGDV 110256Z AUTO 30022G30KT 10SM CLR 07/M09 A3006 RMK AO2 PK WND 30030/0254 SLP195 T00721094 58004 TSNO
KGDV 110156Z AUTO 28012KT 10SM CLR 03/M08 A3006 RMK AO2 SLP200 T00281083
KGDV 110056Z AUTO 29014KT 10SM CLR 05/M09 A3008 RMK AO2 SLP203 T00501089
KGDV 102356Z AUTO 28008KT 10SM CLR 05/M10 A3007 RMK AO2 SLP200 T00501100 10128 20050 58004
KGDV 102256Z AUTO 30018G24KT 10SM BKN120 09/M11 A3008 RMK AO2 PK WND 30033/2220 SLP200 T00941106
KGDV 102156Z AUTO 30020G24KT 10SM CLR 10/M10 A3008 RMK AO2 PK WND 30026/2110 SLP198 T01001100
KGDV 102056Z AUTO 30017G23KT 10SM CLR 11/M11 A3008 RMK AO2 SLP199 T01111106 56020
KGDV 101956Z AUTO 26012KT 10SM CLR 12/M09 A3011 RMK AO2 SLP206 T01171094
KGDV 101856Z AUTO 27012KT 10SM CLR 12/M09 A3012 RMK AO2 SLP211 T01171094
KGDV 101756Z AUTO 28011KT 10SM CLR 10/M10 A3015 RMK AO2 WSHFT 1654 SLP220 T01001100 10106 20017 58003
KGDV 101719Z AUTO 28011KT 10SM CLR 09/M09 A3016 RMK AO2 WSHFT 1654
KGDV 101656Z AUTO 28014G17KT 10SM CLR 09/M09 A3016 RMK AO2 SLP228 T00891094
KGDV 101556Z AUTO 22007KT 10SM CLR 04/M09 A3015 RMK AO2 SLP228 T00441094
KGDV 101456Z AUTO 28010KT 10SM CLR 02/M10 A3016 RMK AO2 SLP230 T00221100 55000 FZRANO
KGDV 101356Z AUTO 27007KT 10SM CLR 02/M11 A3016 RMK AO2 SLP231 T00221106 FZRANO
KGDV 101256Z AUTO 30010KT 10SM CLR 04/M11 A3015 RMK AO2 SLP226 T00391106
KGDV 101156Z AUTO 30015KT 10SM CLR 04/M10 A3016 RMK AO2 SLP228 T00391100 10056 20033 58000
KGDV 100956Z AUTO 29019KT 10SM CLR 04/M10 A3016 RMK AO2 SLP226 T00391100
KGDV 100856Z AUTO 28013KT 10SM CLR 03/M10 A3016 RMK AO2 SLP225 T00331100 50002 TSNO
KGDV 100756Z AUTO 31007KT 10SM CLR 03/M10 A3016 RMK AO2 SLP226 T00331100
KGDV 100656Z AUTO 29013KT 10SM CLR 05/M11 A3016 RMK AO2 SLP227 T00501106 401111044
KGDV 100556Z AUTO 28017KT 10SM CLR 06/M11 A3015 RMK AO2 SLP225 T00561106 10072 20039 51005
KGDV 100456Z AUTO 28016KT 10SM CLR 04/M10 A3015 RMK AO2 SLP227 T00441100